Time;durP1;ratioP1;P1;durP2;ratioP2;P2;SDS_P1;SDS_P2;PMS_P1;PMS_P2;Temp;Humidity;BMP_temperature;BMP_pressure;BME280_temperature;BME280_humidity;BME280_pressure;Samples;Min_cycle;Max_cycle;Signal;HPM_P1;HPM_P2
2021/08/16 00:00:07;;;;;;;20.08;12.43;;;;;;;21.93;59.24;99314.19;1756379;81;20998;-41
2021/08/16 00:02:34;;;;;;;19.12;12.70;;;;;;;21.89;59.12;99314.87;1756589;81;21153;-41
2021/08/16 00:05:49;;;;;;;20.82;12.68;;;;;;;21.78;59.45;99308.89;1833114;77;22566;-41
2021/08/16 00:08:17;;;;;;;19.65;12.15;;;;;;;21.69;59.65;99304.58;1814283;79;21612;-41
2021/08/16 00:10:44;;;;;;;15.50;11.43;;;;;;;21.71;59.48;99313.20;1816218;79;21128;-42
2021/08/16 00:13:11;;;;;;;21.50;13.28;;;;;;;21.73;59.55;99310.02;1809677;79;20986;-41
2021/08/16 00:15:39;;;;;;;19.85;12.90;;;;;;;21.69;59.68;99313.63;1783855;80;21240;-41
2021/08/16 00:18:08;;;;;;;15.40;12.35;;;;;;;21.68;59.72;99318.23;1784437;79;21531;-41
2021/08/16 00:20:36;;;;;;;17.10;11.78;;;;;;;21.66;60.04;99309.59;1786147;79;21009;-41
2021/08/16 00:23:02;;;;;;;19.98;12.85;;;;;;;21.59;60.10;99313.31;1787726;78;21077;-41
2021/08/16 00:25:31;;;;;;;19.00;12.18;;;;;;;21.53;60.35;99312.91;1808813;78;20953;-41
2021/08/16 00:27:59;;;;;;;19.55;12.50;;;;;;;21.52;60.61;99309.38;1821834;78;20921;-41
2021/08/16 00:30:27;;;;;;;19.02;12.95;;;;;;;21.52;60.87;99307.22;1778688;79;21523;-41
2021/08/16 00:32:55;;;;;;;20.77;13.10;;;;;;;21.52;60.97;99310.75;1810883;78;20957;-42
2021/08/16 00:35:23;;;;;;;20.77;12.50;;;;;;;21.53;60.86;99310.16;1821982;78;21115;-42
2021/08/16 00:37:52;;;;;;;18.57;11.50;;;;;;;21.54;60.75;99311.71;1821112;78;21514;-42
2021/08/16 00:40:21;;;;;;;18.50;13.50;;;;;;;21.58;61.01;99305.48;1817617;78;20930;-42
2021/08/16 00:42:49;;;;;;;19.60;13.70;;;;;;;21.62;60.47;99301.42;1816203;78;20926;-42
2021/08/16 00:45:17;;;;;;;21.48;13.65;;;;;;;21.62;60.23;99300.05;1816179;78;20991;-42
2021/08/16 00:47:46;;;;;;;22.37;14.23;;;;;;;21.61;60.23;99304.01;1816188;78;21511;-42
2021/08/16 00:50:14;;;;;;;20.35;14.43;;;;;;;21.60;60.02;99300.30;1816065;79;20988;-42
2021/08/16 00:52:42;;;;;;;25.40;14.43;;;;;;;21.56;60.08;99305.14;1805708;79;21768;-42
2021/08/16 00:55:10;;;;;;;23.80;14.75;;;;;;;21.52;60.13;99301.70;1790406;78;21105;-42
2021/08/16 00:57:38;;;;;;;22.20;14.68;;;;;;;21.49;60.19;99302.58;1797309;78;21064;-42
2021/08/16 01:00:08;;;;;;;20.23;14.33;;;;;;;21.46;60.33;99309.73;1816787;78;20998;-42
2021/08/16 01:02:38;;;;;;;25.48;15.05;;;;;;;21.44;60.68;99298.38;1813920;78;21034;-42
2021/08/16 01:05:08;;;;;;;21.77;13.65;;;;;;;21.39;60.68;99302.25;1792270;78;20954;-42
2021/08/16 01:07:37;;;;;;;23.98;16.00;;;;;;;21.37;60.76;99298.54;1761840;80;20969;-42
2021/08/16 01:10:07;;;;;;;22.90;15.23;;;;;;;21.34;60.70;99302.78;1805127;79;20953;-42
2021/08/16 01:12:35;;;;;;;21.20;15.00;;;;;;;21.31;60.91;99298.89;1804353;79;20953;-42
2021/08/16 01:15:05;;;;;;;24.43;13.98;;;;;;;21.34;61.02;99295.88;1778771;79;21529;-42
2021/08/16 01:17:32;;;;;;;22.80;14.13;;;;;;;21.39;61.32;99293.98;1775642;79;21535;-42
2021/08/16 01:20:06;;;;;;;21.55;15.10;;;;;;;21.46;61.37;99302.05;1773273;81;20965;-42
2021/08/16 01:22:33;;;;;;;22.00;14.73;;;;;;;21.48;61.39;99303.19;1772940;79;21076;-42
2021/08/16 01:25:03;;;;;;;19.80;14.35;;;;;;;21.51;61.21;99291.87;1773194;80;21076;-42
2021/08/16 01:27:30;;;;;;;22.35;14.98;;;;;;;21.53;61.08;99295.77;1772146;81;21829;-42
2021/08/16 01:29:59;;;;;;;22.40;15.93;;;;;;;21.55;61.17;99295.30;1793263;79;20993;-42
2021/08/16 01:32:25;;;;;;;21.25;14.43;;;;;;;21.57;61.50;99291.52;1799899;79;20910;-42
2021/08/16 01:34:53;;;;;;;20.82;14.15;;;;;;;21.58;61.45;99284.80;1772763;81;21626;-42
2021/08/16 01:37:19;;;;;;;22.58;15.08;;;;;;;21.57;61.53;99287.38;1777244;78;21077;-42
2021/08/16 01:39:45;;;;;;;21.45;14.28;;;;;;;21.55;61.74;99290.56;1791699;80;20954;-42
2021/08/16 01:42:12;;;;;;;19.27;13.18;;;;;;;21.57;62.02;99291.52;1791234;80;21021;-42
2021/08/16 01:44:39;;;;;;;22.00;13.80;;;;;;;21.61;62.24;99283.92;1801827;78;20957;-42
2021/08/16 01:47:06;;;;;;;20.20;14.15;;;;;;;21.64;61.87;99282.44;1802863;79;21034;-42
2021/08/16 01:49:33;;;;;;;20.50;13.93;;;;;;;21.64;61.75;99286.57;1802615;79;21129;-42
2021/08/16 01:52:00;;;;;;;23.80;13.90;;;;;;;21.64;61.72;99287.17;1777220;79;20895;-42
2021/08/16 01:54:28;;;;;;;18.95;14.03;;;;;;;21.62;61.81;99288.23;1784592;79;21483;-42
2021/08/16 01:56:54;;;;;;;21.73;14.30;;;;;;;21.60;62.01;99289.26;1804517;79;21562;-42
2021/08/16 01:59:21;;;;;;;21.37;14.03;;;;;;;21.59;62.05;99286.36;1776576;79;20967;-42
2021/08/16 02:01:48;;;;;;;23.70;14.93;;;;;;;21.56;61.88;99285.22;1772849;81;21927;-42
2021/08/16 02:04:14;;;;;;;20.72;14.50;;;;;;;21.53;61.76;99286.11;1775627;79;21058;-42
2021/08/16 02:06:42;;;;;;;18.87;13.53;;;;;;;21.49;61.75;99286.03;1801549;79;21000;-42
2021/08/16 02:09:08;;;;;;;17.30;13.78;;;;;;;21.49;61.99;99284.66;1802240;79;20918;-42
2021/08/16 02:11:36;;;;;;;20.48;14.07;;;;;;;21.49;61.89;99286.03;1775962;79;21126;-42
2021/08/16 02:14:03;;;;;;;18.87;13.83;;;;;;;21.52;62.03;99292.05;1802650;79;21136;-42
2021/08/16 02:16:30;;;;;;;19.37;13.28;;;;;;;21.50;62.38;99299.37;1782320;79;20961;-42
2021/08/16 02:18:57;;;;;;;20.02;13.98;;;;;;;21.49;62.76;99292.92;1716232;82;21021;-42
2021/08/16 02:21:24;;;;;;;20.60;13.88;;;;;;;21.46;62.61;99297.91;1802499;79;21021;-42
2021/08/16 02:23:51;;;;;;;23.70;14.63;;;;;;;21.44;62.48;99292.08;1803608;79;21609;-42
2021/08/16 02:26:19;;;;;;;25.50;15.00;;;;;;;21.42;62.19;99310.43;1802988;79;21460;-42
2021/08/16 02:28:47;;;;;;;24.32;14.40;;;;;;;21.39;62.00;99301.66;1805269;79;21492;-42
2021/08/16 02:31:13;;;;;;;20.80;14.45;;;;;;;21.37;61.93;99306.81;1772326;79;20941;-42
2021/08/16 02:33:40;;;;;;;20.55;14.10;;;;;;;21.35;61.73;99304.33;1765922;79;21014;-41
2021/08/16 02:36:06;;;;;;;18.52;13.95;;;;;;;21.34;61.75;99305.53;1764293;81;21033;-42
2021/08/16 02:38:33;;;;;;;18.73;13.58;;;;;;;21.36;61.70;99294.23;1784939;79;21999;-42
2021/08/16 02:41:00;;;;;;;22.52;14.45;;;;;;;21.39;61.41;99296.73;1770688;81;20921;-42
2021/08/16 02:43:28;;;;;;;20.40;14.07;;;;;;;21.38;61.42;99289.66;1770808;80;21060;-42
2021/08/16 02:45:56;;;;;;;19.75;13.83;;;;;;;21.36;61.35;99299.74;1770695;81;21057;-42
2021/08/16 02:48:23;;;;;;;19.98;14.05;;;;;;;21.37;61.39;99288.11;1774172;79;21046;-42
2021/08/16 02:50:50;;;;;;;20.35;14.55;;;;;;;21.36;61.40;99293.45;1771058;81;21121;-42
2021/08/16 02:53:17;;;;;;;20.25;14.00;;;;;;;21.36;61.29;99297.58;1798815;78;21590;-42
2021/08/16 02:55:44;;;;;;;22.80;14.93;;;;;;;21.32;61.44;99296.91;1774119;79;21467;-42
2021/08/16 02:58:10;;;;;;;21.52;14.35;;;;;;;21.31;61.38;99298.89;1771516;79;21633;-42
2021/08/16 03:00:37;;;;;;;23.40;15.08;;;;;;;21.29;61.38;99297.19;1733964;82;21065;-42
2021/08/16 03:03:03;;;;;;;23.50;13.40;;;;;;;21.27;61.46;99300.97;1733902;82;21132;-42
2021/08/16 03:05:30;;;;;;;20.48;14.00;;;;;;;21.30;61.38;99307.61;1790943;78;21670;-42
2021/08/16 03:07:58;;;;;;;23.05;14.10;;;;;;;21.33;61.34;99303.38;1800710;78;21557;-42
2021/08/16 03:10:25;;;;;;;18.17;13.48;;;;;;;21.36;61.35;99305.25;1793554;79;21080;-42
2021/08/16 03:12:53;;;;;;;23.00;14.83;;;;;;;21.38;61.39;99308.37;1775964;78;21004;-42
2021/08/16 03:15:21;;;;;;;20.57;13.48;;;;;;;21.38;61.18;99304.23;1737033;81;21217;-42
2021/08/16 03:17:49;;;;;;;19.40;14.50;;;;;;;21.38;61.34;99297.94;1718215;82;21545;-42
2021/08/16 03:20:18;;;;;;;24.15;14.38;;;;;;;21.39;61.29;99302.25;1724278;82;20965;-42
2021/08/16 03:22:44;;;;;;;24.85;14.28;;;;;;;21.38;61.23;99303.45;1733033;81;21018;-42
2021/08/16 03:25:11;;;;;;;21.90;15.03;;;;;;;21.38;61.13;99302.08;1786244;78;21074;-42
2021/08/16 03:27:38;;;;;;;19.90;14.68;;;;;;;21.34;61.14;99304.16;1798773;79;21118;-42
2021/08/16 03:30:07;;;;;;;24.40;15.55;;;;;;;21.29;61.10;99300.54;1796446;79;21495;-42
2021/08/16 03:32:34;;;;;;;25.90;15.55;;;;;;;21.27;61.17;99293.30;1797772;78;20967;-42
2021/08/16 03:35:00;;;;;;;21.70;14.63;;;;;;;21.23;61.28;99293.39;1795208;79;20965;-42
2021/08/16 03:37:32;;;;;;;24.90;14.98;;;;;;;21.24;61.42;99294.34;1793614;78;21029;-42
2021/08/16 03:39:59;;;;;;;20.35;14.20;;;;;;;21.30;61.53;99294.57;1761351;81;21473;-43
2021/08/16 03:42:26;;;;;;;24.67;15.95;;;;;;;21.36;61.40;99294.83;1742817;81;21640;-42
2021/08/16 03:44:53;;;;;;;20.90;14.87;;;;;;;21.38;61.13;99289.66;1745398;80;21637;-43
2021/08/16 03:47:20;;;;;;;21.87;14.70;;;;;;;21.38;61.03;99291.83;1732339;82;21021;-43
2021/08/16 03:49:46;;;;;;;22.50;15.78;;;;;;;21.40;61.32;99298.27;1746179;82;21091;-43
2021/08/16 03:52:13;;;;;;;19.62;14.83;;;;;;;21.43;61.31;99297.41;1728441;82;21215;-43
2021/08/16 03:54:39;;;;;;;23.25;15.65;;;;;;;21.45;61.19;99299.89;1742362;80;20934;-43
2021/08/16 03:57:06;;;;;;;21.95;15.55;;;;;;;21.48;61.29;99298.27;1740778;82;20906;-43
2021/08/16 03:59:33;;;;;;;22.70;15.58;;;;;;;21.50;61.28;99290.31;1748035;81;21418;-43
2021/08/16 04:02:00;;;;;;;22.07;14.68;;;;;;;21.52;61.51;99301.09;1752563;81;21559;-43
2021/08/16 04:04:26;;;;;;;23.27;15.28;;;;;;;21.56;61.32;99301.00;1720813;81;21750;-43
2021/08/16 04:06:53;;;;;;;26.20;15.60;;;;;;;21.62;60.74;99301.42;1742876;82;20965;-42
2021/08/16 04:09:20;;;;;;;23.60;15.35;;;;;;;21.67;60.59;99301.50;1749648;82;20992;-43
2021/08/16 04:11:46;;;;;;;22.50;15.50;;;;;;;21.66;60.50;99295.80;1745064;82;21030;-43
2021/08/16 04:14:14;;;;;;;24.05;15.15;;;;;;;21.65;60.55;99300.55;1743445;82;21097;-42
2021/08/16 04:16:42;;;;;;;24.25;15.53;;;;;;;21.65;60.62;99299.16;1743516;82;21591;-43
2021/08/16 04:19:09;;;;;;;23.98;15.10;;;;;;;21.64;60.57;99301.75;1744146;82;21010;-43
2021/08/16 04:21:36;;;;;;;23.52;15.90;;;;;;;21.64;60.47;99298.98;1747364;82;21016;-43
2021/08/16 04:24:02;;;;;;;20.40;15.30;;;;;;;21.63;60.48;99296.69;1726755;81;20987;-43
2021/08/16 04:26:29;;;;;;;21.42;14.98;;;;;;;21.61;60.58;99303.23;1728709;82;21041;-43
2021/08/16 04:28:56;;;;;;;20.50;14.10;;;;;;;21.57;60.88;99302.55;1743464;82;21141;-42
2021/08/16 04:31:23;;;;;;;20.62;13.80;;;;;;;21.54;61.17;99304.81;1743161;82;21053;-43
2021/08/16 04:33:49;;;;;;;18.57;13.53;;;;;;;21.57;61.40;99309.45;1747704;81;21105;-43
2021/08/16 04:36:16;;;;;;;20.32;14.30;;;;;;;21.63;61.42;99302.98;1738812;81;21072;-42
2021/08/16 04:38:43;;;;;;;21.45;14.95;;;;;;;21.73;61.44;99301.75;1759408;81;21036;-43
2021/08/16 04:41:09;;;;;;;25.20;14.47;;;;;;;21.79;61.36;99307.66;1739251;81;21872;-43
2021/08/16 04:43:37;;;;;;;24.72;14.78;;;;;;;21.85;61.41;99309.28;1727227;82;20994;-43
2021/08/16 04:46:03;;;;;;;17.82;13.80;;;;;;;21.89;61.55;99301.06;1750839;81;21024;-42
2021/08/16 04:48:31;;;;;;;21.77;14.65;;;;;;;21.93;61.67;99297.63;1711669;83;21519;-43
2021/08/16 04:50:57;;;;;;;18.12;14.00;;;;;;;21.98;61.76;99299.07;1759966;81;21495;-43
2021/08/16 04:53:24;;;;;;;22.60;14.80;;;;;;;22.02;61.63;99295.03;1753393;81;21869;-42
2021/08/16 04:55:51;;;;;;;21.35;13.83;;;;;;;22.09;61.59;99301.70;1754884;80;21093;-43
2021/08/16 04:58:18;;;;;;;24.20;14.40;;;;;;;22.20;61.61;99300.03;1748949;81;21545;-43
2021/08/16 05:00:44;;;;;;;18.65;13.98;;;;;;;22.33;61.39;99297.27;1753490;81;21016;-43
2021/08/16 05:03:13;;;;;;;19.37;14.18;;;;;;;22.42;61.15;99296.78;1774350;80;21076;-43
2021/08/16 05:05:47;;;;;;;20.35;14.45;;;;;;;22.47;60.73;99295.46;1743837;80;21116;-43
2021/08/16 05:08:08;;;;;;;20.48;14.33;;;;;;;22.52;60.33;99300.44;1747313;82;20973;-42
2021/08/16 05:10:34;;;;;;;20.88;14.55;;;;;;;22.56;60.35;99295.57;1762286;80;20953;-43
2021/08/16 05:13:03;;;;;;;20.15;14.40;;;;;;;22.63;60.33;99302.88;1747179;82;21563;-43
2021/08/16 05:15:30;;;;;;;18.95;14.28;;;;;;;22.68;60.67;99306.47;1779253;80;21558;-43
2021/08/16 05:18:00;;;;;;;19.55;14.05;;;;;;;22.73;60.58;99306.73;1748861;82;20949;-42
2021/08/16 05:20:29;;;;;;;20.82;13.93;;;;;;;22.77;60.42;99307.38;1815323;79;20972;-43
2021/08/16 05:22:56;;;;;;;21.82;14.98;;;;;;;22.82;60.35;99311.58;1815576;79;20937;-42
2021/08/16 05:25:23;;;;;;;21.23;14.95;;;;;;;22.87;59.61;99309.64;1793532;79;21561;-43
2021/08/16 05:27:49;;;;;;;17.90;13.65;;;;;;;22.95;59.02;99305.42;1798970;79;21043;-42
2021/08/16 05:30:17;;;;;;;18.45;12.80;;;;;;;23.00;58.86;99307.63;1805721;78;21136;-43
2021/08/16 05:32:43;;;;;;;18.62;13.15;;;;;;;23.06;58.94;99314.16;1812038;78;21483;-43
2021/08/16 05:35:10;;;;;;;17.20;11.93;;;;;;;23.15;58.50;99317.63;1811905;78;20937;-43
2021/08/16 05:37:39;;;;;;;19.12;12.65;;;;;;;23.27;58.42;99316.23;1808124;79;21088;-43
2021/08/16 05:40:07;;;;;;;17.00;12.03;;;;;;;23.44;58.17;99314.07;1801006;79;21516;-43
2021/08/16 05:42:34;;;;;;;18.75;12.33;;;;;;;23.56;57.53;99296.70;1806753;79;22151;-43
2021/08/16 05:45:03;;;;;;;19.37;12.20;;;;;;;23.69;57.45;99290.48;1809237;79;21004;-43
2021/08/16 05:47:31;;;;;;;15.50;12.33;;;;;;;23.80;57.34;99290.89;1806629;79;20987;-43
2021/08/16 05:49:58;;;;;;;15.48;12.33;;;;;;;23.91;57.11;99288.34;1799627;78;21052;-43
2021/08/16 05:52:25;;;;;;;20.45;12.07;;;;;;;24.01;57.08;99284.42;1794713;79;21080;-43
2021/08/16 05:54:52;;;;;;;16.57;11.43;;;;;;;24.11;56.60;99282.61;1788249;78;21083;-43
2021/08/16 05:57:19;;;;;;;14.33;11.78;;;;;;;24.21;56.51;99289.01;1807171;78;20947;-43
2021/08/16 05:59:45;;;;;;;16.42;11.97;;;;;;;24.31;56.35;99291.98;1806747;79;20942;-43
2021/08/16 06:02:12;;;;;;;16.75;11.60;;;;;;;24.40;55.41;99290.64;1791973;79;21530;-43
2021/08/16 06:04:39;;;;;;;15.48;11.20;;;;;;;24.48;55.33;99294.71;1791243;79;21020;-43
2021/08/16 06:07:05;;;;;;;16.82;10.82;;;;;;;24.58;54.99;99295.52;1795963;79;21140;-43
2021/08/16 06:09:32;;;;;;;14.60;10.55;;;;;;;24.66;54.96;99297.55;1781767;79;21008;-43
2021/08/16 06:11:59;;;;;;;13.93;10.45;;;;;;;24.77;54.41;99299.13;1784123;79;21040;-43
2021/08/16 06:14:26;;;;;;;18.95;10.23;;;;;;;24.87;54.50;99297.96;1783237;80;20933;-43
2021/08/16 06:16:54;;;;;;;12.78;9.83;;;;;;;24.99;53.83;99294.28;1787087;78;21028;-43
2021/08/16 06:19:21;;;;;;;13.30;9.85;;;;;;;25.08;52.74;99291.53;1789465;79;21132;-43
2021/08/16 06:21:49;;;;;;;15.55;10.38;;;;;;;25.17;52.76;99286.64;1781735;79;20996;-43
2021/08/16 06:24:16;;;;;;;12.05;9.55;;;;;;;25.27;52.79;99293.75;1765750;81;20990;-43
2021/08/16 06:26:43;;;;;;;15.23;9.55;;;;;;;25.35;52.20;99293.59;1790885;79;21064;-43
2021/08/16 06:29:10;;;;;;;16.42;9.63;;;;;;;25.43;51.95;99301.15;1769816;79;21045;-43
2021/08/16 06:31:37;;;;;;;15.30;9.48;;;;;;;25.52;50.90;99304.54;1789132;78;21196;-43
2021/08/16 06:34:07;;;;;;;13.28;9.35;;;;;;;25.63;51.04;99293.01;1799810;78;21026;-43
2021/08/16 06:36:38;;;;;;;14.30;9.60;;;;;;;25.72;51.42;99298.55;1795529;78;21004;-43
2021/08/16 06:39:01;;;;;;;12.90;9.45;;;;;;;25.82;51.38;99295.93;1790677;79;20959;-43
2021/08/16 06:41:28;;;;;;;13.55;10.05;;;;;;;25.95;50.93;99292.36;1784555;79;21081;-43
2021/08/16 06:43:55;;;;;;;12.82;8.78;;;;;;;26.07;51.17;99293.43;1790687;79;21137;-43
2021/08/16 06:46:21;;;;;;;14.95;9.45;;;;;;;26.19;51.43;99299.44;1792931;79;21081;-43
2021/08/16 06:48:49;;;;;;;12.40;8.70;;;;;;;26.30;51.49;99303.28;1793035;79;21512;-43
2021/08/16 06:51:15;;;;;;;12.78;9.28;;;;;;;26.39;51.00;99303.25;1789193;79;21487;-43
2021/08/16 06:53:42;;;;;;;14.07;8.55;;;;;;;26.50;50.66;99299.98;1789215;79;21038;-43
2021/08/16 06:56:08;;;;;;;18.70;9.75;;;;;;;26.61;50.11;99302.27;1788727;79;21798;-43
2021/08/16 06:58:36;;;;;;;14.35;9.48;;;;;;;26.68;49.83;99304.07;1794150;79;20977;-43
2021/08/16 07:01:04;;;;;;;29.87;10.50;;;;;;;26.77;48.78;99301.89;1793671;79;20945;-43
2021/08/16 07:03:32;;;;;;;15.23;9.98;;;;;;;26.87;48.54;99306.17;1793967;79;21073;-43
2021/08/16 07:05:59;;;;;;;17.70;9.18;;;;;;;26.96;48.72;99299.20;1793719;79;21185;-44
2021/08/16 07:08:26;;;;;;;12.33;8.45;;;;;;;27.03;47.84;99300.22;1784109;79;21118;-43
2021/08/16 07:10:54;;;;;;;11.03;8.23;;;;;;;27.13;47.92;99300.94;1797046;79;20978;-43
2021/08/16 07:13:23;;;;;;;12.43;8.30;;;;;;;27.24;47.36;99300.56;1796626;79;21636;-43
2021/08/16 07:15:50;;;;;;;11.30;8.38;;;;;;;27.36;46.97;99302.17;1797656;79;20977;-43
2021/08/16 07:18:17;;;;;;;11.08;8.28;;;;;;;27.45;46.79;99304.91;1804535;79;21025;-43
2021/08/16 07:20:44;;;;;;;13.53;8.00;;;;;;;27.55;46.40;99298.80;1795748;79;21121;-43
2021/08/16 07:23:11;;;;;;;11.38;8.10;;;;;;;27.66;46.71;99306.61;1777425;79;21551;-43
2021/08/16 07:25:39;;;;;;;11.93;8.53;;;;;;;27.79;46.46;99301.54;1792636;78;21064;-43
2021/08/16 07:28:06;;;;;;;12.18;8.40;;;;;;;27.92;45.76;99315.99;1801806;79;21009;-43
2021/08/16 07:30:32;;;;;;;9.90;7.72;;;;;;;28.00;44.86;99311.58;1791315;79;21518;-43
2021/08/16 07:33:00;;;;;;;11.55;7.78;;;;;;;28.09;45.03;99319.84;1790641;79;21150;-43
2021/08/16 07:35:27;;;;;;;12.05;7.75;;;;;;;28.19;44.09;99310.02;1788938;79;21689;-43
2021/08/16 07:37:55;;;;;;;11.28;7.28;;;;;;;28.28;43.12;99319.67;1789672;79;21167;-43
2021/08/16 07:40:22;;;;;;;15.85;7.30;;;;;;;28.35;42.59;99308.16;1800579;79;21022;-43
2021/08/16 07:42:48;;;;;;;11.80;7.20;;;;;;;28.40;42.00;99307.48;1802288;79;21132;-43
2021/08/16 07:45:15;;;;;;;8.95;7.45;;;;;;;28.46;42.68;99306.33;1787959;79;21147;-43
2021/08/16 07:47:42;;;;;;;8.43;6.90;;;;;;;28.55;42.98;99312.42;1787623;79;21519;-43
2021/08/16 07:50:11;;;;;;;10.35;6.67;;;;;;;28.68;43.46;99313.49;1791200;79;21002;-43
2021/08/16 07:52:41;;;;;;;10.13;6.70;;;;;;;28.84;42.83;99315.80;1732567;82;21091;-43
2021/08/16 07:55:07;;;;;;;9.67;7.03;;;;;;;28.95;41.80;99311.77;1744130;82;21523;-43
2021/08/16 07:57:35;;;;;;;11.15;6.95;;;;;;;29.05;41.35;99309.64;1739166;82;21712;-43
2021/08/16 08:00:04;;;;;;;15.38;6.87;;;;;;;29.11;41.04;99304.89;1767492;80;20949;-43
2021/08/16 08:02:45;;;;;;;10.55;6.60;;;;;;;29.19;41.27;99310.22;1709642;82;21038;-43
2021/08/16 08:05:17;;;;;;;8.28;6.83;;;;;;;29.29;41.22;99310.97;1738200;82;21073;-43
2021/08/16 08:07:45;;;;;;;11.03;6.90;;;;;;;29.43;41.10;99306.63;1751216;81;21077;-43
2021/08/16 08:10:13;;;;;;;8.23;6.35;;;;;;;29.54;40.75;99302.55;1710387;82;21496;-43
2021/08/16 08:12:40;;;;;;;9.28;6.67;;;;;;;29.67;40.34;99304.37;1724325;83;20934;-44
2021/08/16 08:15:08;;;;;;;8.55;6.75;;;;;;;29.78;39.77;99302.30;1732977;81;21076;-43
2021/08/16 08:17:35;;;;;;;11.25;6.50;;;;;;;29.85;40.00;99304.67;1757776;80;21028;-43
2021/08/16 08:20:04;;;;;;;9.40;6.35;;;;;;;29.95;39.60;99303.92;1757741;80;21010;-43
2021/08/16 08:22:31;;;;;;;10.07;6.40;;;;;;;30.05;39.28;99304.66;1733321;81;21173;-43
2021/08/16 08:24:58;;;;;;;6.62;5.97;;;;;;;30.13;38.92;99303.58;1735696;82;20945;-43
2021/08/16 08:27:24;;;;;;;11.68;6.60;;;;;;;30.21;39.05;99297.67;1716026;83;21049;-43
2021/08/16 08:29:51;;;;;;;11.70;7.15;;;;;;;30.33;38.93;99308.34;1723214;83;21049;-43
2021/08/16 08:32:18;;;;;;;12.63;6.53;;;;;;;30.45;38.37;99305.78;1721821;83;21522;-43
2021/08/16 08:34:44;;;;;;;12.78;7.08;;;;;;;30.55;38.76;99300.14;1758496;80;21157;-44
2021/08/16 08:37:16;;;;;;;9.00;6.60;;;;;;;30.63;37.62;99297.81;1757253;81;21025;-43
2021/08/16 08:39:45;;;;;;;9.23;6.60;;;;;;;30.70;37.88;99295.16;1757190;81;21648;-43
2021/08/16 08:42:12;;;;;;;;;;;;;;;30.78;37.71;99289.89;1759800;81;21037;-43
2021/08/16 08:44:40;;;;;;;9.38;5.85;;;;;;;30.89;36.43;99281.54;1752157;81;20476;-43
2021/08/16 08:47:07;;;;;;;7.95;5.60;;;;;;;30.86;36.66;99286.75;1746215;81;21583;-43
2021/08/16 08:49:34;;;;;;;9.08;5.90;;;;;;;30.92;35.90;99291.13;1723438;81;20990;-43
2021/08/16 08:52:01;;;;;;;9.15;5.85;;;;;;;30.91;34.38;99286.79;1754981;81;21063;-43
2021/08/16 08:54:28;;;;;;;8.90;5.97;;;;;;;30.89;35.08;99285.73;1759753;81;21377;-43
2021/08/16 08:56:56;;;;;;;12.63;5.80;;;;;;;30.87;35.24;99280.66;1716069;82;21076;-43
2021/08/16 08:59:23;;;;;;;8.73;6.10;;;;;;;30.90;34.88;99283.08;1726969;81;21829;-43
2021/08/16 09:01:58;;;;;;;9.50;5.67;;;;;;;30.93;35.78;99286.30;1729247;81;21076;-43
2021/08/16 09:04:25;;;;;;;6.83;5.55;;;;;;;30.94;35.13;99278.01;1751838;81;20999;-43
2021/08/16 09:06:52;;;;;;;11.22;5.80;;;;;;;31.00;35.09;99280.21;1753600;81;21029;-43
2021/08/16 09:09:18;;;;;;;8.50;5.17;;;;;;;31.08;34.69;99270.75;1738178;82;21523;-43
2021/08/16 09:11:50;;;;;;;9.98;5.70;;;;;;;31.13;34.35;99270.02;1737731;82;21137;-43
2021/08/16 09:14:18;;;;;;;8.85;5.87;;;;;;;31.18;34.42;99270.02;1738072;82;20990;-43
2021/08/16 09:16:47;;;;;;;12.58;6.20;;;;;;;31.24;35.10;99274.25;1703468;83;21630;-43
2021/08/16 09:19:19;;;;;;;12.23;6.05;;;;;;;31.27;34.73;99269.83;1740648;81;21047;-43
2021/08/16 09:22:04;;;;;;;15.30;6.45;;;;;;;31.32;34.58;99270.45;1772953;80;21065;-43
2021/08/16 09:24:33;;;;;;;12.25;5.58;;;;;;;31.42;35.22;99269.59;1773102;80;21213;-43
2021/08/16 09:27:15;;;;;;;8.65;6.22;;;;;;;31.53;34.09;99268.24;1771160;80;20969;-43
2021/08/16 09:29:49;;;;;;;15.30;6.17;;;;;;;31.60;34.46;99264.22;1769272;80;21034;-44
2021/08/16 09:32:17;;;;;;;7.05;5.17;;;;;;;31.67;32.93;99255.31;1761140;80;21543;-43
2021/08/16 09:34:49;;;;;;;10.05;6.20;;;;;;;31.70;33.62;99255.72;1779891;80;21029;-44
2021/08/16 09:37:25;;;;;;;7.35;5.33;;;;;;;31.85;34.59;99255.63;1732241;81;21809;-43
2021/08/16 09:40:02;;;;;;;10.93;6.15;;;;;;;32.05;33.61;99251.80;1695454;83;21097;-43
2021/08/16 09:42:58;;;;;;;10.40;5.85;;;;;;;32.24;33.49;99252.11;1716539;83;20985;-43
2021/08/16 09:45:38;;;;;;;5.90;5.03;;;;;;;32.40;32.97;99257.56;1714914;82;21033;-43
2021/08/16 09:48:07;;;;;;;6.50;5.20;;;;;;;32.54;32.61;99244.66;1721378;83;21084;-43
2021/08/16 09:50:44;;;;;;;7.10;5.60;;;;;;;32.61;31.37;99246.19;1746466;82;21078;-43
2021/08/16 09:53:19;;;;;;;7.90;5.70;;;;;;;32.57;31.65;99240.84;1775779;80;21472;-44
2021/08/16 09:55:49;;;;;;;12.47;5.80;;;;;;;32.60;32.07;99248.87;1772284;81;20944;-43
2021/08/16 09:58:17;;;;;;;8.05;5.42;;;;;;;32.64;31.38;99246.59;1772563;81;21024;-43
2021/08/16 10:00:47;;;;;;;9.15;6.08;;;;;;;32.65;32.14;99239.06;1737333;82;21516;-43
2021/08/16 10:03:14;;;;;;;6.92;5.50;;;;;;;32.69;31.90;99240.20;1730029;81;21109;-43
2021/08/16 10:05:44;;;;;;;10.18;5.35;;;;;;;32.78;32.69;99237.11;1703868;82;21081;-44
2021/08/16 10:08:13;;;;;;;7.60;5.72;;;;;;;32.93;31.85;99228.39;1718408;82;21063;-44
2021/08/16 10:10:42;;;;;;;6.85;5.53;;;;;;;33.10;31.11;99228.47;1719249;82;20962;-44
2021/08/16 10:13:10;;;;;;;9.50;5.90;;;;;;;33.21;30.03;99231.91;1745365;81;21025;-44
2021/08/16 10:15:44;;;;;;;9.85;5.78;;;;;;;33.28;30.59;99226.36;1737795;82;21492;-44
2021/08/16 10:18:16;;;;;;;8.98;5.85;;;;;;;33.37;30.58;99227.46;1735335;81;21566;-44
2021/08/16 10:20:46;;;;;;;8.48;5.50;;;;;;;33.43;30.16;99224.76;1728557;82;21025;-44
2021/08/16 10:23:23;;;;;;;7.83;5.20;;;;;;;33.48;30.38;99216.94;1737054;81;20957;-44
2021/08/16 10:25:52;;;;;;;12.23;5.47;;;;;;;33.52;31.04;99222.27;1715173;82;21603;-44
2021/08/16 10:28:33;;;;;;;9.48;5.70;;;;;;;33.56;30.50;99223.52;1706098;84;21684;-44
2021/08/16 10:31:03;;;;;;;10.50;5.80;;;;;;;33.62;30.10;99223.49;1726463;81;20955;-44
2021/08/16 10:33:29;;;;;;;8.80;5.50;;;;;;;33.72;30.57;99222.56;1737535;81;21096;-44
2021/08/16 10:35:58;;;;;;;6.33;5.40;;;;;;;33.75;30.69;99217.29;1738178;82;21065;-44
2021/08/16 10:38:25;;;;;;;7.87;5.45;;;;;;;33.83;30.73;99232.34;1738299;82;21084;-44
2021/08/16 10:40:54;;;;;;;7.78;5.65;;;;;;;33.86;30.59;99215.17;1731145;81;21828;-44
2021/08/16 10:43:21;;;;;;;10.60;5.57;;;;;;;33.84;29.90;99215.59;1741822;81;20973;-44
2021/08/16 10:45:52;;;;;;;9.23;5.65;;;;;;;33.82;30.18;99212.52;1774980;80;21677;-44
2021/08/16 10:48:26;;;;;;;10.40;6.05;;;;;;;33.80;30.90;99205.24;1773224;79;21506;-44
2021/08/16 10:51:09;;;;;;;8.33;5.72;;;;;;;33.89;30.88;99216.19;1796632;79;20982;-44
2021/08/16 10:53:52;;;;;;;8.43;5.62;;;;;;;33.92;30.62;99212.32;1775515;79;21117;-44
2021/08/16 10:56:24;;;;;;;9.13;5.72;;;;;;;34.00;30.25;99207.64;1734995;81;21121;-44
2021/08/16 10:58:52;;;;;;;8.98;5.60;;;;;;;34.20;30.76;99210.70;1711206;83;20991;-44
2021/08/16 11:01:30;;;;;;;8.30;5.67;;;;;;;34.41;29.79;99201.30;1717945;83;21054;-44
2021/08/16 11:04:05;;;;;;;7.47;5.40;;;;;;;34.64;29.44;99199.01;1732475;82;21082;-44
2021/08/16 11:06:32;;;;;;;6.45;5.30;;;;;;;34.94;28.38;99197.55;1775849;80;21185;-44
2021/08/16 11:09:02;;;;;;;9.10;5.83;;;;;;;35.09;28.22;99198.52;1779581;80;21508;-44
2021/08/16 11:11:34;;;;;;;8.55;5.40;;;;;;;35.20;28.36;99196.97;1780668;80;20994;-44
2021/08/16 11:14:11;;;;;;;10.55;5.83;;;;;;;35.35;28.21;99181.77;1775660;80;21041;-44
2021/08/16 11:16:48;;;;;;;9.50;5.17;;;;;;;35.50;27.82;99186.94;1766282;80;21028;-43
2021/08/16 11:19:15;;;;;;;7.12;4.75;;;;;;;35.56;27.18;99185.57;1764948;78;21791;-43
2021/08/16 11:21:59;;;;;;;9.85;5.15;;;;;;;35.62;27.64;99186.25;1753803;79;21111;-43
2021/08/16 11:24:33;;;;;;;6.35;4.85;;;;;;;35.83;27.25;99181.45;1770574;78;20981;-44
2021/08/16 11:27:04;;;;;;;9.05;5.15;;;;;;;36.04;27.47;99176.11;1759108;80;21012;-44